Allensville, PA

1:32 PM EDT on August 28, 2015 (GMT -0400)
big valley | | Change Station
CLOSE
Current Station
Personal Weather Station
Location: Belleville, PA
Elevation: 873 ft
Nearby Weather Stations

Elev 873 ft 40.62 °N, 77.71 °W | Updated 6 minutes ago

Partly Cloudy
Partly Cloudy
83.3 °F
Feels Like 83 °F
N
2.7
Wind Variable Wind from SSW

Today
High -- | Low -- °F
--% Chance of Precip.
Yesterday
High -- | Low -- °F
Precip. -- in
6:33 AM 7:49 PM
Waxing Gibbous, 98% visible
Pressure 30.24 in
Visibility 10.0 miles
Clouds Scattered Clouds 4600 ft
Scattered Clouds 5500 ft
Scattered Clouds 8000 ft
Heat Index 83 °F
Dew Point 60 °F
Humidity 45%
Rainfall 0.00 in
Snow Depth Not available.
UV 8 out of 12
Pollen 9.60 out of 12
Air Quality Not available.
Flu Activity Not available.
METAR KUNV 281653Z 00000KT 10SM SCT046 SCT055 SCT080 21/14 A3024
Pressure 30.24 in
Visibility 10.0 miles
Clouds Scattered Clouds 4600 ft
Scattered Clouds 5500 ft
Scattered Clouds 8000 ft
Heat Index 83 °F
Dew Point 60 °F
Humidity 45%
Rainfall 0.00 in
Snow Depth Not available.
UV 8 out of 12
Pollen 9.60 out of 12
Air Quality Not available.
Flu Activity Not available.
METAR KUNV 281653Z 00000KT 10SM SCT046 SCT055 SCT080 21/14 A3024

10-Day Weather Forecast

×

Almanac

Astronomy

Aug. 28, 2015 Rise Set
Actual Time
Civil Twilight
Nautical Twilight
Astronomical Twilight
Moon
Length of Visible Light
Length of Day
Tomorrow will be .
, % of the Moon is Illuminated

Today's Extremes

State Highs State Lows

Community

WunderPhotos

Upload Photos

1,850,439 photos uploaded!

WunderBlogs® & News

Nearby

Air Quality

  Air Quality AQ Index Pollutant
Not available.

Snow Depth

Station Depth Elevation

Earthquake Activity

City Distance Mag. Time & Date
Minimum magnitude displayed is 2.5.

Coastal Water Temperatures

Place Temperature

Stations

Nearby Weather Stations

Station Location Temp. Windchill Dew Point Humidity Wind Precip. Elev Updated Type